Time,TemperatureF,DewpointF,PressureIn,WindDirection,WindDirectionDegrees,WindSpeedMPH,WindSpeedGustMPH,Humidity,HourlyPrecipIn,Conditions,Clouds,dailyrainin,SoftwareType,DateUTC
2013-04-29 00:02:00,50.5,27.7,29.81,SE,136,0.0,2.0,41,0.00,,,0.00,meteobridge,2013-04-29 07:02:00,
2013-04-29 00:17:00,50.2,28.6,29.81,SSE,155,0.0,2.0,43,0.00,,,0.00,meteobridge,2013-04-29 07:17:00,
2013-04-29 00:32:00,49.8,28.8,29.81,West,268,0.0,8.1,44,0.00,,,0.00,meteobridge,2013-04-29 07:32:00,
2013-04-29 00:48:00,49.5,29.5,29.81,SE,143,0.9,2.0,46,0.00,,,0.00,meteobridge,2013-04-29 07:48:00,
2013-04-29 01:03:00,49.3,30.4,29.81,SSW,201,2.0,2.9,48,0.00,,,0.00,meteobridge,2013-04-29 08:03:00,
2013-04-29 01:18:00,48.9,30.6,29.80,South,176,0.9,6.0,49,0.00,,,0.00,meteobridge,2013-04-29 08:18:00,
2013-04-29 01:33:00,48.6,31.3,29.80,ENE,74,0.0,0.9,51,0.00,,,0.00,meteobridge,2013-04-29 08:33:00,
2013-04-29 01:48:00,48.2,31.8,29.80,SSE,159,0.0,2.9,53,0.00,,,0.00,meteobridge,2013-04-29 08:48:00,
2013-04-29 02:03:00,47.5,34.3,29.78,SE,144,0.9,4.9,60,0.00,,,0.00,meteobridge,2013-04-29 09:03:00,
2013-04-29 02:18:00,46.8,34.0,29.78,NNW,335,0.0,2.0,61,0.00,,,0.00,meteobridge,2013-04-29 09:18:00,
2013-04-29 02:33:00,46.2,34.0,29.77,SSE,156,0.0,4.0,62,0.00,,,0.00,meteobridge,2013-04-29 09:33:00,
2013-04-29 02:48:00,46.0,33.8,29.76,SSE,158,2.0,2.0,62,0.00,,,0.00,meteobridge,2013-04-29 09:48:00,
2013-04-29 03:03:00,45.9,34.0,29.75,West,279,0.9,2.9,63,0.00,,,0.00,meteobridge,2013-04-29 10:03:00,
2013-04-29 03:18:00,45.5,34.3,29.73,SW,214,0.0,2.0,65,0.00,,,0.00,meteobridge,2013-04-29 10:18:00,
2013-04-29 03:33:00,44.8,34.5,29.73,SW,221,0.0,0.9,67,0.00,,,0.00,meteobridge,2013-04-29 10:33:00,
2013-04-29 03:48:00,44.2,34.3,29.73,South,184,0.0,0.9,68,0.00,,,0.00,meteobridge,2013-04-29 10:48:00,
2013-04-29 04:03:00,44.1,34.5,29.72,WSW,237,0.0,0.9,69,0.00,,,0.00,meteobridge,2013-04-29 11:03:00,
2013-04-29 04:18:00,44.2,34.3,29.72,SE,141,0.9,4.0,68,0.00,,,0.00,meteobridge,2013-04-29 11:18:00,
2013-04-29 04:33:00,45.0,34.7,29.71,SE,128,0.9,4.0,67,0.00,,,0.00,meteobridge,2013-04-29 11:33:00,
2013-04-29 04:48:00,45.1,35.2,29.72,SE,139,0.0,2.0,68,0.00,,,0.00,meteobridge,2013-04-29 11:48:00,
2013-04-29 05:03:00,45.3,35.4,29.71,SSE,148,0.0,2.0,68,0.00,,,0.00,meteobridge,2013-04-29 12:03:00,
2013-04-29 05:19:00,44.8,35.2,29.70,WNW,300,0.0,0.9,69,0.00,,,0.00,meteobridge,2013-04-29 12:19:00,
2013-04-29 05:34:00,44.4,35.2,29.69,SSE,148,4.0,6.0,70,0.00,,,0.00,meteobridge,2013-04-29 12:34:00,
2013-04-29 05:49:00,44.6,35.8,29.69,SSW,204,0.0,2.9,71,0.00,,,0.00,meteobridge,2013-04-29 12:49:00,
2013-04-29 06:04:00,44.8,36.3,29.68,SE,141,0.9,4.9,72,0.00,,,0.00,meteobridge,2013-04-29 13:04:00,
2013-04-29 06:19:00,45.1,36.7,29.68,North,359,0.9,2.0,72,0.00,,,0.00,meteobridge,2013-04-29 13:19:00,
2013-04-29 06:34:00,45.7,37.2,29.69,ESE,113,0.9,2.9,72,0.00,,,0.00,meteobridge,2013-04-29 13:34:00,
2013-04-29 06:49:00,46.8,37.6,29.69,WNW,289,0.0,2.9,70,0.00,,,0.00,meteobridge,2013-04-29 13:49:00,
2013-04-29 07:04:00,47.5,37.4,29.69,SSE,148,0.0,6.0,68,0.00,,,0.00,meteobridge,2013-04-29 14:04:00,
2013-04-29 07:19:00,47.7,37.2,29.70,WNW,285,0.0,6.0,67,0.00,,,0.00,meteobridge,2013-04-29 14:19:00,
2013-04-29 07:34:00,47.7,36.5,29.70,West,265,0.0,8.1,65,0.00,,,0.00,meteobridge,2013-04-29 14:34:00,
2013-04-29 07:49:00,47.8,35.8,29.70,SSW,202,2.9,6.0,63,0.00,,,0.00,meteobridge,2013-04-29 14:49:00,
2013-04-29 08:04:00,48.2,34.5,29.70,WSW,257,0.0,8.1,59,0.00,,,0.00,meteobridge,2013-04-29 15:04:00,
2013-04-29 08:19:00,48.9,33.4,29.70,West,272,2.0,6.0,55,0.00,,,0.00,meteobridge,2013-04-29 15:19:00,
2013-04-29 08:34:00,49.8,32.4,29.70,WSW,252,0.9,4.9,51,0.00,,,0.00,meteobridge,2013-04-29 15:34:00,
2013-04-29 08:49:00,50.0,31.1,29.70,WNW,299,0.9,4.9,48,0.00,,,0.00,meteobridge,2013-04-29 15:49:00,
2013-04-29 09:04:00,49.8,28.2,29.71,SE,140,8.1,8.1,43,0.00,,,0.00,meteobridge,2013-04-29 16:04:00,
2013-04-29 09:19:00,50.4,25.7,29.70,WNW,299,0.9,4.9,38,0.00,,,0.00,meteobridge,2013-04-29 16:19:00,
2013-04-29 09:34:00,50.7,23.4,29.70,WNW,299,0.9,4.9,34,0.00,,,0.00,meteobridge,2013-04-29 16:34:00,
2013-04-29 09:49:00,51.6,21.9,29.69,West,266,0.0,4.0,31,0.00,,,0.00,meteobridge,2013-04-29 16:49:00,
2013-04-29 10:04:00,52.3,17.6,29.70,NW,319,0.9,6.0,25,0.00,,,0.00,meteobridge,2013-04-29 17:04:00,
2013-04-29 10:19:00,52.5,15.8,29.71,WNW,297,2.0,12.1,23,0.00,,,0.00,meteobridge,2013-04-29 17:19:00,
2013-04-29 10:34:00,52.5,15.8,29.72,WNW,285,6.0,11.0,23,0.00,,,0.00,meteobridge,2013-04-29 17:34:00,
2013-04-29 10:49:00,52.9,15.1,29.72,West,278,2.9,14.1,22,0.00,,,0.00,meteobridge,2013-04-29 17:49:00,
2013-04-29 11:04:00,53.2,16.3,29.73,NW,306,0.9,8.9,23,0.00,,,0.00,meteobridge,2013-04-29 18:04:00,
2013-04-29 11:19:00,54.7,19.6,29.73,SSE,163,0.9,8.1,25,0.00,,,0.00,meteobridge,2013-04-29 18:19:00,
2013-04-29 11:34:00,55.6,18.3,29.73,West,259,4.0,6.9,23,0.00,,,0.00,meteobridge,2013-04-29 18:34:00,
2013-04-29 11:49:00,55.8,17.4,29.73,West,264,0.9,10.1,22,0.00,,,0.00,meteobridge,2013-04-29 18:49:00,
2013-04-29 12:04:00,54.7,18.5,29.73,West,281,4.0,8.1,24,0.00,,,0.00,meteobridge,2013-04-29 19:04:00,
2013-04-29 12:19:00,54.0,18.0,29.73,WSW,240,2.9,8.9,24,0.00,,,0.00,meteobridge,2013-04-29 19:19:00,
2013-04-29 12:34:00,55.0,18.0,29.73,NNW,335,2.0,8.1,23,0.00,,,0.00,meteobridge,2013-04-29 19:34:00,
2013-04-29 12:49:00,55.0,18.0,29.73,West,281,2.0,4.0,23,0.00,,,0.00,meteobridge,2013-04-29 19:49:00,
2013-04-29 13:04:00,55.8,19.6,29.73,SE,146,2.0,4.0,24,0.00,,,0.00,meteobridge,2013-04-29 20:04:00,
2013-04-29 13:19:00,53.6,16.7,29.74,West,279,4.0,4.0,23,0.00,,,0.00,meteobridge,2013-04-29 20:19:00,
2013-04-29 13:34:00,55.2,17.1,29.74,West,267,0.0,2.9,22,0.00,,,0.00,meteobridge,2013-04-29 20:34:00,
2013-04-29 13:49:00,55.2,16.0,29.74,West,270,2.9,8.1,21,0.00,,,0.00,meteobridge,2013-04-29 20:49:00,
2013-04-29 14:04:00,56.5,17.1,29.74,NNW,332,2.0,6.0,21,0.00,,,0.00,meteobridge,2013-04-29 21:04:00,
2013-04-29 14:19:00,53.1,26.1,29.76,SE,125,2.0,4.0,35,0.00,,,0.00,meteobridge,2013-04-29 21:19:00,
2013-04-29 14:34:00,52.3,25.5,29.75,NW,307,0.0,0.9,35,0.00,,,0.00,meteobridge,2013-04-29 21:34:00,
2013-04-29 14:49:00,52.3,22.6,29.75,West,264,0.9,2.9,31,0.00,,,0.00,meteobridge,2013-04-29 21:49:00,
2013-04-29 15:04:00,52.0,22.3,29.75,SSW,203,2.0,4.0,31,0.00,,,0.00,meteobridge,2013-04-29 22:04:00,
2013-04-29 15:19:00,52.9,20.7,29.76,NW,314,2.0,4.0,28,0.00,,,0.00,meteobridge,2013-04-29 22:19:00,
2013-04-29 15:34:00,51.4,25.3,29.78,NNE,28,0.9,2.9,36,0.00,,,0.00,meteobridge,2013-04-29 22:34:00,
2013-04-29 15:49:00,52.5,20.3,29.78,NE,55,0.0,8.1,28,0.00,,,0.00,meteobridge,2013-04-29 22:49:00,
2013-04-29 16:04:00,52.5,19.4,29.78,WNW,300,4.9,11.0,27,0.00,,,0.00,meteobridge,2013-04-29 23:04:00,
2013-04-29 16:19:00,53.4,21.9,29.78,West,274,0.9,4.0,29,0.00,,,0.00,meteobridge,2013-04-29 23:19:00,
2013-04-29 16:34:00,53.1,19.9,29.78,WNW,282,2.9,4.0,27,0.00,,,0.00,meteobridge,2013-04-29 23:34:00,
2013-04-29 16:49:00,54.1,17.1,29.78,WNW,296,2.9,6.0,23,0.00,,,0.00,meteobridge,2013-04-29 23:49:00,
2013-04-29 17:04:00,54.5,16.3,29.79,West,263,0.9,8.9,22,0.00,,,0.00,meteobridge,2013-04-30 00:04:00,
2013-04-29 17:19:00,54.7,19.6,29.80,WNW,290,2.0,4.0,25,0.00,,,0.00,meteobridge,2013-04-30 00:19:00,
2013-04-29 17:34:00,54.0,18.0,29.80,SE,142,0.9,4.9,24,0.00,,,0.00,meteobridge,2013-04-30 00:34:00,
2013-04-29 17:49:00,53.1,16.2,29.80,West,259,6.0,8.1,23,0.00,,,0.00,meteobridge,2013-04-30 00:49:00,
2013-04-29 18:04:00,52.2,16.5,29.81,West,276,0.9,8.1,24,0.00,,,0.00,meteobridge,2013-04-30 01:04:00,
2013-04-29 18:19:00,52.0,14.4,29.82,SW,220,4.0,8.1,22,0.00,,,0.00,meteobridge,2013-04-30 01:19:00,
2013-04-29 18:34:00,50.4,14.0,29.82,WNW,286,0.9,2.9,23,0.00,,,0.00,meteobridge,2013-04-30 01:34:00,
2013-04-29 18:49:00,50.5,15.1,29.83,NW,304,0.9,6.9,24,0.00,,,0.00,meteobridge,2013-04-30 01:49:00,
2013-04-29 19:05:00,50.9,16.3,29.83,West,268,0.9,2.9,25,0.00,,,0.00,meteobridge,2013-04-30 02:05:00,
2013-04-29 19:19:00,50.2,17.4,29.83,West,269,0.0,2.9,27,0.00,,,0.00,meteobridge,2013-04-30 02:19:00,
2013-04-29 19:35:00,48.7,18.0,29.84,WSW,248,0.0,0.9,29,0.00,,,0.00,meteobridge,2013-04-30 02:35:00,
2013-04-29 19:50:00,47.8,18.7,29.85,South,169,0.0,2.0,31,0.00,,,0.00,meteobridge,2013-04-30 02:50:00,
2013-04-29 20:05:00,47.3,18.1,29.86,WSW,245,0.0,0.9,31,0.00,,,0.00,meteobridge,2013-04-30 03:05:00,
2013-04-29 20:20:00,46.9,18.7,29.86,WNW,283,0.0,2.9,32,0.00,,,0.00,meteobridge,2013-04-30 03:20:00,
2013-04-29 20:35:00,46.8,19.2,29.87,WSW,239,0.9,2.9,33,0.00,,,0.00,meteobridge,2013-04-30 03:35:00,
2013-04-29 20:50:00,46.6,19.0,29.88,West,281,0.0,4.0,33,0.00,,,0.00,meteobridge,2013-04-30 03:50:00,
2013-04-29 21:05:00,46.0,19.2,29.89,NW,323,0.0,2.0,34,0.00,,,0.00,meteobridge,2013-04-30 04:05:00,
2013-04-29 21:20:00,45.7,18.9,29.89,South,187,0.9,2.0,34,0.00,,,0.00,meteobridge,2013-04-30 04:20:00,
2013-04-29 21:35:00,45.3,19.9,29.90,ENE,70,0.0,0.9,36,0.00,,,0.00,meteobridge,2013-04-30 04:35:00,
2013-04-29 21:50:00,45.0,19.6,29.90,SW,226,0.0,0.9,36,0.00,,,0.00,meteobridge,2013-04-30 04:50:00,
2013-04-29 22:05:00,44.8,20.7,29.91,NW,305,0.0,0.9,38,0.00,,,0.00,meteobridge,2013-04-30 05:05:00,
2013-04-29 22:20:00,44.4,21.6,29.91,ENE,63,0.0,2.0,40,0.00,,,0.00,meteobridge,2013-04-30 05:20:00,
2013-04-29 22:36:00,43.5,21.9,29.91,ENE,71,0.0,0.0,42,0.00,,,0.00,meteobridge,2013-04-30 05:36:00,
2013-04-29 22:51:00,42.4,22.6,29.91,ENE,71,0.0,0.0,45,0.00,,,0.00,meteobridge,2013-04-30 05:51:00,
2013-04-29 23:07:00,41.9,23.2,29.91,SSE,159,0.0,0.0,47,0.00,,,0.00,meteobridge,2013-04-30 06:07:00,
2013-04-29 23:22:00,41.5,22.8,29.91,SSE,155,0.0,0.0,47,0.00,,,0.00,meteobridge,2013-04-30 06:22:00,
2013-04-29 23:37:00,41.2,21.9,29.92,SSE,155,0.0,0.0,46,0.00,,,0.00,meteobridge,2013-04-30 06:37:00,
2013-04-29 23:52:00,40.3,21.2,29.92,SSE,155,0.0,0.0,46,0.00,,,0.00,meteobridge,2013-04-30 06:52:00,